Station: Bairnsdale  

  Atmospheric Gas Attenuation - ITU Rec 676-11   ----------------- dB/100km -----------------
Date Time Temp RH % AH g/m3 Dew Point Wind Direction Speed kph Gust kph Barometer mB Rainfall Since 9am 24GHz 47GHz 76GHz 122GHz 134GHz 241GHz
08/05 12:30 17.1 61 8.88 9.5 43 63 1018.5 0 20.0 25.6 39.5 103.6 98.3 338.5
08/05 12:20 17.3 63 9.28 10.2 48 56 1018.7 0 20.9 26.2 41.0 107.5 103.2 355.7
08/05 12:10 17.2 61 8.93 9.6 39 46 1018.7 0 20.1 25.6 39.6 104.0 98.8 340.4
08/05 12:00 16.6 65 9.18 10 41 65 1018.6 0 20.7 26.2 40.9 107.4 102.8 354.3
08/05 11:50 16.7 66 9.38 10.3 37 41 1018.8 0 21.1 26.5 41.7 109.4 105.3 363.1
08/05 11:40 16.3 66 9.16 9.9 39 46 1018.8 0 20.7 26.3 41.0 107.6 103.0 354.8
08/05 11:30 16.4 69 9.63 10.7 35 56 1018.9 0 21.6 27.0 42.8 112.5 109.0 376.0
08/05 11:20 16.1 69 9.46 10.4 44 50 1019 0 21.3 26.8 42.3 111.1 107.2 369.6
08/05 11:10 16 71 9.67 10.7 35 48 1018.8 0 21.8 27.2 43.2 113.5 110.1 379.8
08/05 11:00 15.1 71 9.16 9.9 41 54 1018.6 0 20.7 26.6 41.6 109.3 104.6 360.2
08/05 10:50 15.6 71 9.44 10.4 37 44 1018.5 0 21.3 26.9 42.5 111.6 107.6 370.9
08/05 10:40 15.2 71 9.22 10 37 46 1018.7 0 20.8 26.7 41.8 109.8 105.2 362.6
08/05 10:30 15.6 72 9.57 10.6 39 59 1018.6 0 21.6 27.1 43.0 113.0 109.3 377.0
08/05 10:20 14.9 72 9.18 9.9 37 46 1018.5 0 20.8 26.7 41.8 109.8 105.1 362.0
08/05 10:10 14.8 72 9.12 9.8 43 52 1018.6 0 20.6 26.6 41.6 109.3 104.4 359.7
08/05 10:00 15.3 69 9.01 9.7 35 56 1018.5 0 20.4 26.3 40.9 107.4 102.3 352.3
08/05 09:50 14.8 72 9.12 9.8 43 50 1018.5 0 20.6 26.6 41.6 109.2 104.4 359.7
08/05 09:40 15.2 73 9.48 10.4 26 32 1018.4 0 21.4 27.1 42.9 112.6 108.7 374.6
08/05 09:30 14.6 77 9.64 10.6 35 48 1018.2 0 21.8 27.5 43.8 115.2 111.7 385.0
08/05 09:20 14.1 79 9.59 10.5 32 37 1018.4 0 21.7 27.6 43.9 115.4 111.7 385.2
08/05 09:10 14.1 79 9.59 10.5 39 46 1018.2 0 21.7 27.6 43.9 115.4 111.7 385.1
08/05 09:00 14.2 79 9.65 10.6 39 56 1017.8 0 21.8 27.7 44.1 115.8 112.4 387.4
08/05 08:50 14.1 78 9.47 10.3 37 44 1017.8 0 21.4 27.4 43.4 114.0 110.1 379.3
08/05 08:40 14 78 9.41 10.2 46 52 1017.4 0 21.3 27.3 43.2 113.4 109.3 376.8
08/05 08:30 13.9 80 9.59 10.5 37 50 1017.2 0 21.7 27.6 44.0 115.5 111.9 385.8
08/05 08:20 13.7 81 9.59 10.5 44 54 1017.3 0 21.7 27.7 44.1 115.9 112.2 386.8
08/05 08:10 13.5 82 9.59 10.5 35 43 1017.3 0 21.7 27.8 44.2 116.2 112.5 387.8
08/05 08:00 13.5 83 9.71 10.7 37 50 1017.1 0 22.0 28.0 44.7 117.5 114.2 393.5
08/05 07:50 13.1 84 9.59 10.5 37 44 1017 0 21.7 27.9 44.4 116.7 113.1 389.7
08/05 07:40 13 87 9.87 10.9 32 50 1017 0 22.3 28.4 45.7 120.0 117.1 403.9
08/05 07:30 13 87 9.87 10.9 32 44 1017.1 0 22.3 28.4 45.7 120.1 117.1 403.9
08/05 07:20 12.8 88 9.86 10.9 28 32 1017 0 22.3 28.4 45.7 120.2 117.3 404.4
08/05 07:10 12.7 88 9.8 10.8 32 35 1016.7 0 22.2 28.4 45.5 119.7 116.6 401.9
08/05 07:00 12.7 87 9.69 10.6 33 48 1016.5 0 22.0 28.2 45.0 118.4 115.0 396.5
08/05 06:50 12.6 88 9.74 10.7 35 43 1016.5 0 22.1 28.3 45.3 119.1 115.9 399.4
08/05 06:40 12.5 89 9.79 10.7 33 37 1016.3 0 22.2 28.4 45.6 119.8 116.7 402.3
08/05 06:30 12.2 91 9.82 10.8 37 59 1016.1 0 22.3 28.5 45.9 120.6 117.6 405.3
08/05 06:20 12.7 87 9.69 10.6 39 44 1016.1 0 22.0 28.2 45.0 118.4 115.0 396.3
08/05 06:10 12.3 91 9.88 10.9 28 39 1016 0 22.4 28.6 46.1 121.1 118.3 407.7
08/05 06:00 12 92 9.81 10.7 32 48 1016.2 0 22.3 28.6 46.0 120.8 117.8 405.9
08/05 05:50 12.3 88 9.56 10.4 35 43 1016.3 0 21.7 28.1 44.7 117.5 113.8 392.1
08/05 05:40 12.9 82 9.24 9.9 30 35 1015.9 0 21.0 27.3 43.0 113.0 108.4 373.5
08/05 05:30 13 82 9.3 10 35 57 1015.6 0 21.1 27.4 43.2 113.5 109.1 375.8
08/05 05:20 13 80 9.07 9.6 32 41 1015.8 0 20.6 27.0 42.2 110.9 106.0 364.9
08/05 05:10 13.4 77 8.95 9.5 37 48 1015.6 0 20.4 26.7 41.5 109.0 103.8 357.3
08/05 05:00 13.3 78 9.01 9.5 30 44 1015.7 0 20.5 26.8 41.8 109.8 104.7 360.6
08/05 04:50 13.1 79 9.02 9.5 33 43 1015.6 0 20.5 26.9 42.0 110.2 105.1 362.0
08/05 04:40 13.3 77 8.9 9.4 30 39 1015.5 0 20.3 26.6 41.4 108.6 103.2 355.3
08/05 04:30 13.3 78 9.01 9.5 32 46 1015.4 0 20.5 26.8 41.8 109.8 104.7 360.5
08/05 04:20 13.2 79 9.07 9.6 33 43 1015.6 0 20.6 26.9 42.1 110.6 105.7 363.9
08/05 04:10 13.4 77 8.95 9.5 33 39 1015.6 0 20.4 26.7 41.5 109.0 103.8 357.3
08/05 04:00 13.8 73 8.7 9 32 46 1015.3 0 19.8 26.1 40.3 105.7 99.9 343.7
08/05 03:50 13.5 73 8.54 8.8 35 43 1015.4 0 19.5 26.0 39.8 104.4 98.2 337.6
08/05 03:40 13.3 72 8.32 8.4 24 32 1015.4 0 19.0 25.7 39.0 102.3 95.5 328.3
08/05 03:30 13.1 71 8.1 8 28 39 1015.1 0 18.6 25.4 38.2 100.2 92.8 318.9
08/05 03:20 12.8 71 7.95 7.7 24 35 1015.1 0 18.2 25.2 37.8 99.0 91.2 313.2
08/05 03:10 12.7 71 7.9 7.6 24 30 1015.2 0 18.1 25.2 37.6 98.6 90.7 311.3
08/05 03:00 12.9 70 7.89 7.6 24 32 1015.1 0 18.1 25.1 37.5 98.2 90.3 310.1
08/05 02:50 12.7 69 7.68 7.2 20 26 1015.3 0 17.7 24.8 36.8 96.3 87.8 301.3
08/05 02:40 12.6 70 7.74 7.3 15 17 1015.5 0 17.8 24.9 37.0 97.1 88.7 304.5
08/05 02:30 12.5 70 7.7 7.2 20 28 1015.4 0 17.7 24.9 36.9 96.8 88.3 303.0
08/05 02:20 12.4 71 7.76 7.3 22 24 1015.5 0 17.9 25.0 37.2 97.5 89.2 306.2
08/05 02:10 11.1 75 7.56 6.8 11 15 1015.6 0 17.5 25.1 37.0 97.0 88.1 302.0
08/05 02:00 10.9 74 7.36 6.5 13 19 1015.6 0 17.1 24.8 36.3 95.1 85.7 293.5
08/05 01:50 10.8 73 7.22 6.2 15 17 1015.7 0 16.8 24.6 35.8 93.8 84.0 287.5
08/05 01:40 10.6 74 7.22 6.2 13 17 1015.8 0 16.8 24.7 35.9 94.0 84.2 288.2
08/05 01:30 10.3 76 7.28 6.3 17 20 1015.7 0 16.9 24.8 36.3 95.0 85.3 292.1
08/05 01:20 10 77 7.24 6.2 17 19 1015.9 0 16.8 24.9 36.3 94.9 85.1 291.4
08/05 01:10 9.8 77 7.15 6 13 17 1015.9 0 16.7 24.8 36.0 94.2 84.1 288.0
08/05 01:00 9.7 77 7.1 5.9 13 15 1016.1 0 16.6 24.7 35.9 93.8 83.6 286.1
08/05 00:50 9.7 77 7.1 5.9 11 11 1016.2 0 16.6 24.7 35.9 93.8 83.6 286.1
08/05 00:40 9.5 77 7.01 5.7 11 13 1016.3 0 16.4 24.7 35.6 93.1 82.6 282.7
08/05 00:30 9.6 76 6.96 5.6 11 17 1016.4 0 16.3 24.5 35.3 92.5 81.9 280.0
08/05 00:20 9.6 76 6.96 5.6 13 15 1016.4 0 16.3 24.5 35.3 92.5 81.9 280.0
08/05 00:10 9.7 76 7.01 5.7 13 15 1016.5 0 16.4 24.6 35.5 92.9 82.4 282.0
08/05 00:00 9.6 76 6.96 5.6 15 20 1016.7 0 16.3 24.6 35.4 92.5 81.9 280.1
07/05 23:50 9.6 77 7.06 5.8 15 17 1017.1 0 16.5 24.7 35.8 93.6 83.2 284.8
07/05 23:40 9.5 77 7.01 5.7 15 17 1017.2 0 16.4 24.7 35.6 93.2 82.7 282.9
07/05 23:30 9.6 76 6.96 5.6 13 19 1017.2 0 16.3 24.6 35.4 92.6 81.9 280.2
07/05 23:20 9.7 75 6.92 5.5 15 19 1017.5 0 16.2 24.5 35.2 92.0 81.3 278.1
07/05 23:10 9.8 74 6.87 5.4 17 20 1017.8 0 16.1 24.4 35.0 91.4 80.6 275.5
07/05 23:00 9.9 73 6.82 5.3 17 20 1017.9 0 16.0 24.3 34.7 90.8 79.8 272.9
07/05 22:50 9.9 73 6.82 5.3 17 20 1018.1 0 16.0 24.3 34.7 90.8 79.8 272.9
07/05 22:40 9.8 73 6.77 5.2 17 20 1018.1 0 15.8 24.3 34.6 90.4 79.3 271.0
07/05 22:30 9.7 74 6.82 5.3 15 20 1018 0 16.0 24.4 34.8 91.0 80.0 273.6
07/05 22:20 9.7 74 6.82 5.3 15 17 1018.2 0 16.0 24.4 34.8 91.0 80.1 273.6
07/05 22:10 9.7 74 6.82 5.3 13 17 1018.3 0 16.0 24.4 34.8 91.1 80.1 273.7
07/05 22:00 9.6 74 6.78 5.2 13 17 1018.4 0 15.9 24.3 34.7 90.8 79.7 272.2
07/05 21:50 9.7 74 6.82 5.3 15 20 1018.6 0 16.0 24.4 34.8 91.1 80.1 273.7
07/05 21:40 9.7 75 6.92 5.5 13 13 1018.7 0 16.2 24.5 35.2 92.2 81.4 278.4
07/05 21:30 9.7 75 6.92 5.5 17 24 1018.7 0 16.2 24.5 35.2 92.2 81.4 278.4
07/05 21:20 9.8 75 6.96 5.6 19 20 1018.9 0 16.3 24.6 35.4 92.5 81.8 279.9
07/05 21:10 9.7 76 7.01 5.7 24 26 1019.1 0 16.4 24.7 35.6 93.2 82.6 282.6
07/05 21:00 9.5 78 7.1 5.9 20 28 1019.1 0 16.6 24.9 36.1 94.4 84.0 287.5
07/05 20:50 9.6 77 7.06 5.8 20 24 1019.4 0 16.5 24.8 35.9 93.8 83.4 285.4
07/05 20:40 9.5 78 7.1 5.9 19 22 1019.5 0 16.6 24.9 36.1 94.4 84.1 287.6
07/05 20:30 9.6 78 7.15 6 19 24 1019.4 0 16.7 25.0 36.2 94.8 84.6 289.5
07/05 20:20 9.4 79 7.15 5.9 19 20 1019.6 0 16.7 25.0 36.3 95.1 84.8 290.3
07/05 20:10 9.5 78 7.1 5.9 19 22 1019.8 0 16.6 24.9 36.1 94.4 84.1 287.7
07/05 20:00 9.5 78 7.1 5.9 19 24 1019.7 0 16.6 24.9 36.1 94.4 84.1 287.7

Last Refresh: 08-May-2026 12:08:18

Bureau of Meteorology